Time;durP1;ratioP1;P1;durP2;ratioP2;P2;SDS_P1;SDS_P2;PMS_P1;PMS_P2;Temp;Humidity;BMP_temperature;BMP_pressure;BME280_temperature;BME280_humidity;BME280_pressure;Samples;Min_cycle;Max_cycle;Signal;HPM_P1;HPM_P2
2022/03/02 00:01:42;;;;;;;44.90;28.65;;;4.40;99.90;;;;;;4954129;28;20065;-82
2022/03/02 00:04:08;;;;;;;42.13;28.55;;;4.40;99.90;;;;;;4937810;28;20138;-82
2022/03/02 00:06:34;;;;;;;44.28;27.92;;;4.40;99.90;;;;;;4952573;28;20046;-82
2022/03/02 00:09:00;;;;;;;46.30;29.23;;;4.40;99.90;;;;;;4937675;28;20085;-82
2022/03/02 00:11:27;;;;;;;47.38;29.00;;;4.40;99.90;;;;;;4953443;28;20047;-81
2022/03/02 00:14:03;;;;;;;44.28;27.23;;;4.40;99.90;;;;;;4937756;28;20532;-82
2022/03/02 00:16:30;;;;;;;42.38;27.05;;;4.30;99.90;;;;;;4937120;28;20090;-82
2022/03/02 00:19:05;;;;;;;45.13;28.70;;;4.30;99.90;;;;;;4921717;29;20089;-82
2022/03/02 00:21:31;;;;;;;43.10;27.98;;;4.30;99.90;;;;;;4919737;28;20762;-82
2022/03/02 00:23:57;;;;;;;45.58;29.15;;;4.30;99.90;;;;;;4969519;28;20082;-82
2022/03/02 00:26:35;;;;;;;44.45;28.23;;;4.30;99.90;;;;;;4952248;28;20077;-82
2022/03/02 00:29:02;;;;;;;47.13;29.20;;;4.30;99.90;;;;;;4952710;28;20046;-81
2022/03/02 00:31:28;;;;;;;48.65;30.83;;;3.90;99.90;;;;;;4953805;28;20039;-82
2022/03/02 00:34:00;;;;;;;43.60;28.67;;;4.30;99.90;;;;;;4952138;28;20411;-82
2022/03/02 00:36:26;;;;;;;43.63;28.83;;;4.70;99.90;;;;;;4953461;28;20051;-82
2022/03/02 00:38:52;;;;;;;47.75;29.70;;;4.30;99.90;;;;;;4952673;28;20058;-82
2022/03/02 00:41:17;;;;;;;49.15;29.38;;;4.30;99.90;;;;;;4936567;28;20045;-82
2022/03/02 00:43:43;;;;;;;46.92;28.60;;;4.30;99.90;;;;;;4937388;28;20046;-82
2022/03/02 00:46:09;;;;;;;47.83;29.83;;;4.20;99.90;;;;;;4937170;28;20058;-82
2022/03/02 00:48:35;;;;;;;45.90;29.75;;;4.30;99.90;;;;;;4936360;29;20047;-82
2022/03/02 00:51:00;;;;;;;44.17;28.73;;;4.20;99.90;;;;;;4898932;29;20052;-81
2022/03/02 00:53:26;;;;;;;46.95;29.35;;;4.20;99.90;;;;;;4914960;29;20044;-82
2022/03/02 00:55:52;;;;;;;47.92;29.88;;;4.20;99.90;;;;;;4913776;29;20055;-81
2022/03/02 00:58:18;;;;;;;47.38;30.73;;;4.20;99.90;;;;;;4914357;29;20483;-81
2022/03/02 01:00:43;;;;;;;46.13;29.27;;;4.20;99.90;;;;;;4914853;29;20051;-81
2022/03/02 01:03:09;;;;;;;46.28;29.83;;;4.20;99.90;;;;;;4913840;29;20130;-81
2022/03/02 01:05:34;;;;;;;49.83;30.73;;;4.20;99.90;;;;;;4914739;29;20435;-81
2022/03/02 01:08:00;;;;;;;48.45;31.90;;;4.20;99.90;;;;;;4913990;29;20043;-81
2022/03/02 01:10:26;;;;;;;49.75;30.92;;;4.20;99.90;;;;;;4914649;29;20055;-82
2022/03/02 01:12:51;;;;;;;48.90;29.98;;;4.20;99.90;;;;;;4914069;29;20044;-82
2022/03/02 01:15:17;;;;;;;49.72;31.52;;;4.20;99.90;;;;;;4914276;29;20043;-82
2022/03/02 01:17:43;;;;;;;47.50;30.73;;;4.20;99.90;;;;;;4900930;29;20132;-82
2022/03/02 01:20:11;;;;;;;50.20;30.95;;;4.20;99.90;;;;;;4930400;29;20510;-82
2022/03/02 01:22:37;;;;;;;45.90;30.73;;;4.10;99.90;;;;;;4897874;29;20412;-82
2022/03/02 01:25:04;;;;;;;52.40;31.92;;;4.10;99.90;;;;;;4914803;29;20125;-82
2022/03/02 01:27:30;;;;;;;49.33;31.52;;;4.10;99.90;;;;;;4913518;29;20079;-81
2022/03/02 01:29:56;;;;;;;46.58;30.65;;;4.10;99.90;;;;;;4898030;29;20044;-81
2022/03/02 01:32:22;;;;;;;49.53;31.33;;;4.10;99.90;;;;;;4914852;29;20086;-81
2022/03/02 01:34:48;;;;;;;51.22;33.13;;;4.10;99.90;;;;;;4914321;29;20047;-81
2022/03/02 01:37:17;;;;;;;52.90;33.10;;;4.10;99.90;;;;;;4914349;29;20059;-82
2022/03/02 01:39:43;;;;;;;50.42;32.88;;;4.10;99.90;;;;;;4898861;29;20051;-81
2022/03/02 01:42:10;;;;;;;50.63;31.98;;;4.00;99.90;;;;;;4913718;29;20062;-83
2022/03/02 01:44:37;;;;;;;53.05;32.70;;;4.10;99.90;;;;;;4913625;29;20043;-81
2022/03/02 01:47:05;;;;;;;49.97;31.95;;;4.10;99.90;;;;;;4929859;29;20055;-81
2022/03/02 01:49:30;;;;;;;54.20;33.20;;;4.10;99.90;;;;;;4931709;29;20134;-82
2022/03/02 01:51:56;;;;;;;55.33;33.70;;;4.10;99.90;;;;;;4901456;29;20079;-81
2022/03/02 01:54:22;;;;;;;50.42;32.17;;;4.00;99.90;;;;;;4918517;29;20051;-81
2022/03/02 01:56:49;;;;;;;52.05;34.03;;;4.00;99.90;;;;;;4917613;29;20050;-81
2022/03/02 01:59:14;;;;;;;53.92;35.17;;;4.00;99.90;;;;;;4902214;29;20051;-82
2022/03/02 02:01:41;;;;;;;54.28;32.20;;;4.00;99.90;;;;;;4918728;29;20519;-82
2022/03/02 02:04:22;;;;;;;52.63;33.83;;;4.00;99.90;;;;;;4933476;29;20045;-82
2022/03/02 02:06:48;;;;;;;53.72;33.15;;;3.90;99.90;;;;;;4920923;28;20506;-81
2022/03/02 02:09:13;;;;;;;54.47;33.05;;;3.90;99.90;;;;;;4921210;29;20059;-82
2022/03/02 02:11:39;;;;;;;57.17;33.17;;;3.90;99.90;;;;;;4936052;29;20047;-81
2022/03/02 02:14:05;;;;;;;61.53;34.33;;;3.80;99.90;;;;;;4936759;29;20051;-82
2022/03/02 02:16:31;;;;;;;57.55;35.20;;;3.90;99.90;;;;;;4920939;29;20057;-81
2022/03/02 02:18:56;;;;;;;56.40;35.83;;;3.70;99.90;;;;;;4919882;29;20134;-82
2022/03/02 02:21:22;;;;;;;59.47;35.65;;;3.60;99.90;;;;;;4937294;28;20066;-82
2022/03/02 02:23:50;;;;;;;54.92;34.28;;;3.60;99.90;;;;;;4988103;28;20054;-81
2022/03/02 02:26:16;;;;;;;57.88;35.60;;;3.50;99.90;;;;;;4938981;28;20142;-81
2022/03/02 02:28:43;;;;;;;58.42;36.25;;;3.40;99.90;;;;;;4955623;28;20078;-81
2022/03/02 02:31:08;;;;;;;60.00;36.13;;;3.40;99.90;;;;;;4939644;28;20060;-81
2022/03/02 02:33:34;;;;;;;63.30;38.08;;;3.30;99.90;;;;;;4954892;28;20043;-81
2022/03/02 02:36:00;;;;;;;56.95;36.42;;;3.20;99.90;;;;;;4955146;28;20042;-82
2022/03/02 02:38:25;;;;;;;63.35;37.72;;;3.20;99.90;;;;;;4955609;28;20500;-81
2022/03/02 02:40:52;;;;;;;62.08;37.67;;;3.10;99.90;;;;;;4938237;28;20061;-81
2022/03/02 02:43:21;;;;;;;58.80;36.97;;;3.10;99.90;;;;;;4939012;28;20096;-81
2022/03/02 02:45:46;;;;;;;60.85;37.85;;;3.00;99.90;;;;;;4939599;28;20113;-81
2022/03/02 02:48:12;;;;;;;64.10;37.90;;;2.90;99.90;;;;;;4938273;28;20050;-81
2022/03/02 02:50:39;;;;;;;65.75;38.38;;;2.90;99.90;;;;;;4971676;28;20047;-81
2022/03/02 02:53:08;;;;;;;58.25;37.38;;;2.80;99.90;;;;;;4972289;28;20138;-81
2022/03/02 02:55:35;;;;;;;59.50;38.25;;;2.70;99.90;;;;;;4954118;28;20054;-81
2022/03/02 02:58:01;;;;;;;66.63;38.28;;;2.70;99.90;;;;;;4938429;28;20051;-81
2022/03/02 03:00:29;;;;;;;67.55;39.20;;;2.60;99.90;;;;;;4938898;28;20418;-81
2022/03/02 03:02:56;;;;;;;62.45;38.53;;;2.60;99.90;;;;;;4938874;28;20521;-81
2022/03/02 03:05:25;;;;;;;63.13;39.40;;;2.50;99.90;;;;;;4939569;28;20042;-81
2022/03/02 03:07:53;;;;;;;65.38;38.90;;;2.50;99.90;;;;;;4937985;28;20050;-81
2022/03/02 03:10:19;;;;;;;70.35;41.08;;;2.40;99.90;;;;;;4955158;28;20055;-81
2022/03/02 03:12:46;;;;;;;67.28;39.78;;;2.40;99.90;;;;;;4938052;28;20426;-81
2022/03/02 03:15:14;;;;;;;69.53;39.53;;;2.30;99.90;;;;;;4953928;28;20141;-81
2022/03/02 03:17:41;;;;;;;63.20;39.70;;;2.30;99.90;;;;;;4939212;28;20050;-81
2022/03/02 03:20:09;;;;;;;65.90;38.95;;;2.30;99.90;;;;;;4970348;28;20046;-81
2022/03/02 03:22:35;;;;;;;66.50;38.35;;;2.30;99.90;;;;;;4938090;28;20109;-81
2022/03/02 03:25:02;;;;;;;71.28;40.88;;;2.20;99.90;;;;;;4954175;28;20050;-81
2022/03/02 03:27:28;;;;;;;73.10;39.72;;;2.80;99.90;;;;;;4938049;28;20130;-81
2022/03/02 03:29:53;;;;;;;64.30;39.67;;;2.10;99.90;;;;;;4937904;28;20185;-81
2022/03/02 03:32:19;;;;;;;72.13;40.97;;;2.10;99.90;;;;;;4954179;28;20403;-81
2022/03/02 03:34:46;;;;;;;66.45;38.90;;;2.10;99.90;;;;;;4954595;28;20043;-81
2022/03/02 03:37:12;;;;;;;65.25;38.15;;;2.10;99.90;;;;;;4944604;28;20475;-81
2022/03/02 03:39:38;;;;;;;71.20;41.17;;;2.00;99.90;;;;;;4935431;29;20483;-81
2022/03/02 03:42:04;;;;;;;62.47;37.90;;;2.00;99.90;;;;;;4918914;29;20055;-81
2022/03/02 03:44:29;;;;;;;70.88;39.22;;;2.00;99.90;;;;;;4934262;29;20398;-81
2022/03/02 03:46:55;;;;;;;70.88;40.55;;;1.90;99.90;;;;;;4919293;29;20051;-81
2022/03/02 03:49:21;;;;;;;64.38;39.35;;;1.70;99.90;;;;;;4935633;29;20101;-81
2022/03/02 03:51:46;;;;;;;63.15;39.33;;;1.90;99.90;;;;;;4919050;29;20051;-82
2022/03/02 03:54:12;;;;;;;69.20;41.95;;;1.80;99.90;;;;;;4934853;29;20089;-81
2022/03/02 03:56:38;;;;;;;75.57;40.88;;;1.80;99.90;;;;;;4918553;29;20130;-81
2022/03/02 03:59:04;;;;;;;73.70;41.42;;;1.80;99.90;;;;;;4933976;29;20484;-81
2022/03/02 04:01:30;;;;;;;68.28;38.80;;;1.80;99.90;;;;;;4919384;29;20541;-80
2022/03/02 04:03:55;;;;;;;67.70;39.17;;;1.70;99.90;;;;;;4918600;29;20047;-80
2022/03/02 04:06:21;;;;;;;68.43;38.45;;;1.70;99.90;;;;;;4919156;29;20047;-80
2022/03/02 04:08:47;;;;;;;66.28;40.00;;;1.60;99.90;;;;;;4931418;29;20130;-81
2022/03/02 04:11:13;;;;;;;68.25;38.55;;;1.60;99.90;;;;;;4914633;29;20051;-81
2022/03/02 04:13:38;;;;;;;65.78;39.30;;;1.60;99.90;;;;;;4915224;29;20065;-81
2022/03/02 04:16:05;;;;;;;68.03;38.63;;;1.50;99.90;;;;;;4915705;29;20513;-81
2022/03/02 04:18:32;;;;;;;66.47;37.75;;;1.50;99.90;;;;;;4899529;29;20054;-81
2022/03/02 04:20:58;;;;;;;64.47;38.45;;;1.50;99.90;;;;;;4900078;29;20043;-81
2022/03/02 04:23:25;;;;;;;71.80;39.50;;;1.40;99.90;;;;;;4929045;29;20055;-81
2022/03/02 04:25:51;;;;;;;64.28;38.05;;;1.40;99.90;;;;;;4933416;29;20051;-81
2022/03/02 04:28:17;;;;;;;65.72;37.88;;;1.30;99.90;;;;;;4934275;29;20130;-81
2022/03/02 04:30:43;;;;;;;64.35;38.72;;;1.30;99.90;;;;;;4934472;29;20098;-81
2022/03/02 04:33:09;;;;;;;64.45;38.08;;;1.20;99.90;;;;;;4933260;29;20051;-80
2022/03/02 04:35:35;;;;;;;71.88;40.08;;;1.10;99.90;;;;;;4934450;29;20039;-81
2022/03/02 04:38:02;;;;;;;65.13;38.83;;;1.10;99.90;;;;;;4933925;29;20051;-81
2022/03/02 04:40:27;;;;;;;68.43;38.78;;;1.10;99.90;;;;;;4933713;29;20043;-81
2022/03/02 04:42:54;;;;;;;63.20;38.97;;;1.10;99.90;;;;;;4932818;29;20384;-81
2022/03/02 04:45:28;;;;;;;67.50;37.45;;;1.00;99.90;;;;;;4934172;29;20403;-81
2022/03/02 04:47:54;;;;;;;67.93;38.08;;;1.00;99.90;;;;;;4948559;28;20082;-81
2022/03/02 04:50:21;;;;;;;65.05;39.50;;;0.90;99.90;;;;;;4934135;29;20097;-81
2022/03/02 04:52:47;;;;;;;69.40;38.78;;;0.90;99.90;;;;;;4933953;29;20047;-80
2022/03/02 04:55:13;;;;;;;65.40;38.10;;;0.90;99.90;;;;;;4933635;29;20051;-81
2022/03/02 04:57:42;;;;;;;72.68;41.10;;;0.80;99.90;;;;;;4933299;29;20057;-81
2022/03/02 05:00:12;;;;;;;69.20;40.92;;;0.80;99.90;;;;;;4948993;29;20039;-81
2022/03/02 05:02:39;;;;;;;69.10;39.65;;;0.80;99.90;;;;;;4933939;29;20049;-81
2022/03/02 05:05:06;;;;;;;71.45;40.35;;;0.80;99.90;;;;;;4933545;29;20050;-81
2022/03/02 05:07:32;;;;;;;62.03;37.70;;;0.80;99.90;;;;;;4933057;29;20407;-81
2022/03/02 05:09:58;;;;;;;69.32;39.95;;;0.70;99.90;;;;;;4933187;29;20054;-81
2022/03/02 05:12:23;;;;;;;63.65;38.35;;;0.70;99.90;;;;;;4933350;29;20043;-81
2022/03/02 05:14:50;;;;;;;67.20;39.80;;;0.70;99.90;;;;;;4932653;29;20111;-81
2022/03/02 05:17:16;;;;;;;74.43;41.88;;;0.70;99.90;;;;;;4933521;29;20129;-81
2022/03/02 05:19:41;;;;;;;64.60;37.92;;;0.70;99.90;;;;;;4933948;29;20138;-81
2022/03/02 05:22:07;;;;;;;70.53;39.80;;;0.60;99.90;;;;;;4945065;29;20074;-81
2022/03/02 05:24:33;;;;;;;66.03;39.95;;;0.60;99.90;;;;;;4929635;29;20087;-81
2022/03/02 05:26:58;;;;;;;67.40;39.63;;;0.60;99.90;;;;;;4929507;29;20046;-81
2022/03/02 05:29:24;;;;;;;75.00;40.38;;;0.60;99.90;;;;;;4945342;29;20047;-81
2022/03/02 05:31:50;;;;;;;71.38;38.17;;;0.60;99.90;;;;;;4953554;28;20043;-81
2022/03/02 05:34:15;;;;;;;73.22;41.13;;;0.50;99.90;;;;;;4945089;29;20094;-81
2022/03/02 05:36:41;;;;;;;67.97;39.55;;;0.50;99.90;;;;;;4923017;28;20052;-81
2022/03/02 05:39:07;;;;;;;65.47;38.67;;;0.50;99.90;;;;;;4939813;28;20465;-81
2022/03/02 05:41:33;;;;;;;67.47;39.80;;;0.50;99.90;;;;;;4932758;29;20054;-81
2022/03/02 05:44:00;;;;;;;75.82;41.95;;;0.50;99.90;;;;;;4931286;29;20043;-81
2022/03/02 05:46:27;;;;;;;71.70;40.25;;;0.50;99.90;;;;;;4917036;29;20411;-81
2022/03/02 05:48:53;;;;;;;67.35;40.38;;;0.50;99.90;;;;;;4917011;29;20046;-81
2022/03/02 05:51:20;;;;;;;68.57;38.35;;;0.50;99.90;;;;;;4931108;28;20047;-81
2022/03/02 05:53:46;;;;;;;71.90;39.85;;;0.40;99.90;;;;;;4932968;29;20039;-81
2022/03/02 05:56:11;;;;;;;71.75;39.50;;;0.40;99.90;;;;;;4916692;29;20043;-81
2022/03/02 05:58:37;;;;;;;73.53;39.90;;;0.40;99.90;;;;;;4915959;29;20040;-81
2022/03/02 06:01:03;;;;;;;72.28;40.88;;;0.40;99.90;;;;;;4932831;29;20047;-81
2022/03/02 06:03:29;;;;;;;75.10;41.42;;;0.30;99.90;;;;;;4932077;29;20142;-82
2022/03/02 06:05:55;;;;;;;79.47;41.33;;;0.40;99.90;;;;;;4917056;29;20126;-81
2022/03/02 06:08:21;;;;;;;83.47;42.55;;;0.30;99.90;;;;;;4933175;29;20040;-80
2022/03/02 06:10:48;;;;;;;70.68;41.33;;;0.30;99.90;;;;;;4915781;29;20058;-81
2022/03/02 06:13:14;;;;;;;72.90;39.53;;;0.30;99.90;;;;;;4933474;29;20435;-81
2022/03/02 06:15:41;;;;;;;69.85;39.72;;;0.30;99.90;;;;;;4933170;29;20047;-81
2022/03/02 06:18:07;;;;;;;79.50;40.42;;;0.30;99.90;;;;;;4932295;29;20065;-81
2022/03/02 06:20:32;;;;;;;72.15;40.80;;;0.30;99.90;;;;;;4917682;29;20054;-81
2022/03/02 06:22:59;;;;;;;71.05;39.85;;;0.30;99.90;;;;;;4929611;28;20055;-81
2022/03/02 06:25:26;;;;;;;71.47;40.35;;;0.20;99.90;;;;;;4936130;28;20482;-81
2022/03/02 06:27:51;;;;;;;74.20;41.42;;;0.20;99.90;;;;;;4918561;29;20423;-81
2022/03/02 06:30:18;;;;;;;73.07;40.97;;;0.20;99.90;;;;;;4933613;29;20047;-81
2022/03/02 06:32:44;;;;;;;70.35;40.97;;;0.30;99.90;;;;;;4942663;28;20047;-81
2022/03/02 06:35:10;;;;;;;71.85;40.10;;;0.30;99.90;;;;;;4956969;28;20046;-81
2022/03/02 06:37:36;;;;;;;71.07;40.47;;;0.30;99.90;;;;;;4940220;28;20051;-81
2022/03/02 06:40:10;;;;;;;73.72;40.63;;;0.30;99.90;;;;;;4954483;28;20038;-81
2022/03/02 06:42:53;;;;;;;71.10;39.47;;;0.30;99.90;;;;;;4955078;28;20051;-81
2022/03/02 06:45:28;;;;;;;71.72;39.63;;;0.30;99.90;;;;;;4939104;28;20402;-81
2022/03/02 06:48:12;;;;;;;75.90;40.88;;;0.40;99.90;;;;;;4954891;28;20903;-81
2022/03/02 06:50:42;;;;;;;76.93;41.42;;;0.40;99.90;;;;;;4939398;28;20137;-81
2022/03/02 06:53:12;;;;;;;75.18;40.10;;;0.40;99.90;;;;;;4953956;28;20145;-81
2022/03/02 06:55:40;;;;;;;69.95;40.97;;;0.40;99.90;;;;;;4954191;28;20046;-81
2022/03/02 06:58:10;;;;;;;73.63;41.22;;;0.50;99.90;;;;;;4954012;28;20035;-81
2022/03/02 07:00:37;;;;;;;74.80;41.30;;;0.70;99.90;;;;;;4937765;28;20046;-81
2022/03/02 07:03:05;;;;;;;68.30;39.03;;;0.50;99.90;;;;;;4954485;28;20066;-81
2022/03/02 07:05:32;;;;;;;70.32;40.85;;;0.60;99.90;;;;;;4937300;28;20113;-81
2022/03/02 07:08:00;;;;;;;71.45;39.60;;;0.60;99.90;;;;;;4953119;28;20109;-81
2022/03/02 07:10:27;;;;;;;67.18;38.50;;;1.20;99.90;;;;;;4955181;28;20078;-81
2022/03/02 07:12:53;;;;;;;69.55;40.42;;;0.60;99.90;;;;;;4937912;28;20149;-81
2022/03/02 07:15:19;;;;;;;71.05;40.05;;;0.60;99.90;;;;;;4954915;28;20064;-81
2022/03/02 07:17:44;;;;;;;70.40;41.42;;;0.70;99.90;;;;;;4955284;28;20371;-81
2022/03/02 07:20:11;;;;;;;74.78;41.00;;;0.70;99.90;;;;;;4971472;28;20483;-81
2022/03/02 07:22:43;;;;;;;76.22;41.78;;;0.70;99.90;;;;;;4954237;28;20113;-81
2022/03/02 07:25:21;;;;;;;67.00;39.53;;;0.80;99.90;;;;;;4954635;28;20051;-81
2022/03/02 07:27:49;;;;;;;69.93;40.22;;;0.80;99.90;;;;;;4936675;28;20573;-81
2022/03/02 07:30:16;;;;;;;77.20;42.70;;;0.90;99.90;;;;;;4939040;28;20042;-80
2022/03/02 07:32:46;;;;;;;69.70;41.13;;;1.00;99.90;;;;;;4938404;28;20089;-80
2022/03/02 07:35:13;;;;;;;76.93;42.20;;;1.00;99.90;;;;;;4938211;28;20142;-81
2022/03/02 07:37:49;;;;;;;77.47;41.80;;;1.00;99.90;;;;;;4950203;28;20046;-81
2022/03/02 07:40:15;;;;;;;71.70;42.13;;;1.10;99.90;;;;;;4954150;28;20178;-82
2022/03/02 07:42:41;;;;;;;70.10;40.95;;;1.20;99.90;;;;;;4952574;28;20057;-81
2022/03/02 07:45:08;;;;;;;75.15;42.10;;;1.40;99.90;;;;;;4970453;28;20047;-81
2022/03/02 07:47:52;;;;;;;74.53;41.20;;;1.30;99.90;;;;;;4969111;28;20050;-81
2022/03/02 07:50:18;;;;;;;67.90;41.30;;;1.20;99.90;;;;;;4954238;28;20402;-82
2022/03/02 07:52:49;;;;;;;72.70;40.28;;;1.40;99.90;;;;;;4954880;28;20053;-82
2022/03/02 07:55:24;;;;;;;68.13;40.85;;;1.50;99.90;;;;;;4954136;28;20142;-80
2022/03/02 07:57:53;;;;;;;69.35;40.70;;;1.50;99.90;;;;;;4937518;28;20178;-83
2022/03/02 08:00:18;;;;;;;77.68;42.45;;;2.10;99.90;;;;;;4920366;28;20043;-81
2022/03/02 08:02:47;;;;;;;70.20;41.92;;;1.70;99.90;;;;;;4936227;28;20104;-81
2022/03/02 08:05:13;;;;;;;72.75;40.45;;;1.70;99.90;;;;;;4936127;28;20053;-81
2022/03/02 08:07:38;;;;;;;70.57;40.70;;;2.80;99.90;;;;;;4938302;28;20047;-81
2022/03/02 08:10:05;;;;;;;69.47;42.42;;;1.90;99.90;;;;;;4952511;28;20126;-81
2022/03/02 08:12:31;;;;;;;72.25;40.47;;;1.90;99.90;;;;;;4937272;28;20479;-81
2022/03/02 08:14:57;;;;;;;68.68;42.28;;;2.00;99.90;;;;;;4937601;28;20051;-81
2022/03/02 08:17:23;;;;;;;72.40;41.65;;;2.10;99.90;;;;;;4937360;28;20133;-80
2022/03/02 08:19:49;;;;;;;72.22;41.53;;;2.20;99.90;;;;;;4937847;28;20046;-81
2022/03/02 08:22:18;;;;;;;70.45;41.05;;;2.20;99.90;;;;;;4937505;28;20114;-81
2022/03/02 08:24:51;;;;;;;67.53;41.33;;;2.30;99.90;;;;;;4953318;28;20057;-81
2022/03/02 08:27:18;;;;;;;70.32;42.38;;;2.40;99.90;;;;;;4953217;28;20042;-81
2022/03/02 08:29:52;;;;;;;74.70;41.50;;;2.50;99.90;;;;;;4938371;28;20047;-80
2022/03/02 08:32:19;;;;;;;66.45;40.70;;;2.60;99.90;;;;;;4937235;28;20423;-81
2022/03/02 08:34:46;;;;;;;68.30;40.55;;;2.60;99.90;;;;;;4937268;28;20050;-81
2022/03/02 08:37:11;;;;;;;68.65;40.05;;;2.70;99.90;;;;;;4952736;28;20043;-81
2022/03/02 08:39:37;;;;;;;68.30;39.72;;;2.90;99.90;;;;;;4936832;28;20047;-80
2022/03/02 08:42:03;;;;;;;65.30;39.72;;;2.90;99.90;;;;;;4951852;28;20142;-81
2022/03/02 08:44:29;;;;;;;65.38;40.28;;;2.90;99.90;;;;;;4937220;28;20106;-80
2022/03/02 08:46:55;;;;;;;61.72;38.20;;;3.00;99.90;;;;;;4948688;28;20054;-80
2022/03/02 08:49:21;;;;;;;66.43;40.25;;;3.10;99.90;;;;;;4934052;29;20494;-80
2022/03/02 08:51:49;;;;;;;58.88;36.85;;;3.20;99.90;;;;;;4934014;29;20090;-81
2022/03/02 08:54:17;;;;;;;67.57;38.15;;;3.30;99.90;;;;;;4933572;29;20043;-82
2022/03/02 08:56:43;;;;;;;58.75;37.80;;;3.40;99.90;;;;;;4933877;29;20055;-81
2022/03/02 08:59:13;;;;;;;56.75;36.97;;;3.50;99.90;;;;;;4932334;29;20058;-82
2022/03/02 09:01:54;;;;;;;64.28;40.45;;;4.10;99.90;;;;;;4933883;29;20055;-82
2022/03/02 09:04:30;;;;;;;64.03;35.40;;;3.70;99.90;;;;;;4934353;29;20134;-83
2022/03/02 09:06:56;;;;;;;55.75;35.60;;;4.90;99.90;;;;;;4933314;29;20411;-82
2022/03/02 09:09:22;;;;;;;59.35;35.03;;;3.80;99.90;;;;;;4934080;29;20043;-82
2022/03/02 09:11:48;;;;;;;55.78;35.08;;;3.90;99.90;;;;;;4949489;29;20051;-82
2022/03/02 09:14:29;;;;;;;57.55;33.70;;;3.90;99.90;;;;;;4933349;29;20107;-82
2022/03/02 09:16:54;;;;;;;54.72;33.30;;;4.00;99.90;;;;;;4947061;28;20054;-82
2022/03/02 09:19:20;;;;;;;56.35;35.25;;;4.10;99.90;;;;;;4947760;28;20047;-81
2022/03/02 09:21:46;;;;;;;48.10;33.25;;;4.10;99.90;;;;;;4936235;28;20054;-81
2022/03/02 09:24:13;;;;;;;55.22;33.80;;;4.20;99.90;;;;;;4937128;28;20406;-82
2022/03/02 09:26:39;;;;;;;52.25;34.40;;;4.30;99.90;;;;;;4936416;28;20051;-82
2022/03/02 09:29:07;;;;;;;55.80;34.75;;;4.30;99.90;;;;;;4936077;28;20157;-81
2022/03/02 09:31:35;;;;;;;56.67;34.88;;;4.40;99.90;;;;;;4952358;28;20108;-81
2022/03/02 09:34:07;;;;;;;47.63;32.08;;;4.50;99.90;;;;;;4936514;28;20095;-81
2022/03/02 09:36:36;;;;;;;55.15;33.10;;;4.60;99.90;;;;;;4932287;29;20059;-81
2022/03/02 09:39:04;;;;;;;57.50;33.15;;;4.70;99.90;;;;;;4938780;28;20122;-81
2022/03/02 09:41:48;;;;;;;49.47;31.38;;;4.70;99.90;;;;;;4934316;28;20101;-80
2022/03/02 09:44:18;;;;;;;51.90;31.88;;;4.80;99.90;;;;;;4951977;28;20470;-81
2022/03/02 09:46:49;;;;;;;51.47;31.17;;;4.80;99.90;;;;;;4952311;28;20047;-81
2022/03/02 09:49:21;;;;;;;57.45;32.50;;;4.90;99.90;;;;;;4951727;28;20517;-81
2022/03/02 09:51:52;;;;;;;53.05;32.53;;;5.00;99.90;;;;;;4936233;28;20163;-82
2022/03/02 09:54:22;;;;;;;48.97;31.65;;;5.00;99.90;;;;;;4952716;28;20722;-82
2022/03/02 09:56:51;;;;;;;48.55;30.30;;;5.10;99.90;;;;;;4935541;28;20121;-82
2022/03/02 09:59:18;;;;;;;57.13;30.98;;;5.70;99.90;;;;;;4936211;28;20470;-81
2022/03/02 10:01:44;;;;;;;47.83;30.92;;;5.20;99.90;;;;;;4936330;28;20061;-81
2022/03/02 10:04:13;;;;;;;50.70;31.63;;;5.50;99.90;;;;;;4943522;29;20402;-82
2022/03/02 10:06:43;;;;;;;50.80;29.92;;;5.30;99.90;;;;;;4934467;28;20055;-81
2022/03/02 10:09:11;;;;;;;44.72;30.20;;;5.40;99.90;;;;;;4936231;28;20124;-82
2022/03/02 10:11:40;;;;;;;45.05;30.13;;;5.40;99.90;;;;;;4970829;28;20042;-81
2022/03/02 10:14:06;;;;;;;46.88;29.92;;;5.50;99.90;;;;;;4972653;28;20046;-81
2022/03/02 10:16:41;;;;;;;48.35;29.77;;;5.50;99.90;;;;;;4955043;28;20050;-80
2022/03/02 10:19:23;;;;;;;49.15;30.58;;;5.60;99.90;;;;;;4941135;28;20043;-81
2022/03/02 10:22:04;;;;;;;47.53;30.58;;;5.70;99.90;;;;;;4940260;28;20089;-81
2022/03/02 10:24:32;;;;;;;46.45;29.77;;;6.30;99.90;;;;;;4955097;28;20489;-81
2022/03/02 10:27:04;;;;;;;39.78;27.45;;;5.80;99.90;;;;;;4954775;28;20113;-80
2022/03/02 10:29:44;;;;;;;44.38;26.73;;;6.70;99.90;;;;;;4956213;28;20050;-81
2022/03/02 10:32:17;;;;;;;42.33;26.02;;;6.00;99.90;;;;;;4954901;28;20125;-81
2022/03/02 10:34:51;;;;;;;42.37;27.97;;;6.00;99.90;;;;;;4956144;28;20049;-81
2022/03/02 10:37:20;;;;;;;41.85;28.38;;;6.10;99.90;;;;;;4939631;28;20055;-81
2022/03/02 10:40:06;;;;;;;41.17;26.45;;;6.10;99.90;;;;;;4955288;28;20600;-81
2022/03/02 10:42:35;;;;;;;37.65;24.95;;;6.20;99.90;;;;;;4939047;28;20047;-80
2022/03/02 10:45:13;;;;;;;39.65;26.05;;;6.30;99.90;;;;;;4954353;28;20051;-81
2022/03/02 10:47:51;;;;;;;40.13;25.90;;;6.40;99.90;;;;;;4954978;28;20117;-82
2022/03/02 10:50:16;;;;;;;38.72;25.98;;;6.90;99.90;;;;;;4939445;28;20162;-81
2022/03/02 10:52:45;;;;;;;41.67;24.98;;;6.70;99.90;;;;;;4938707;28;20157;-82
2022/03/02 10:55:13;;;;;;;39.85;24.50;;;6.60;99.90;;;;;;4955025;28;20078;-82
2022/03/02 10:57:39;;;;;;;36.47;22.65;;;6.60;99.90;;;;;;4954445;28;20483;-83
2022/03/02 11:00:13;;;;;;;36.00;23.92;;;6.90;99.90;;;;;;4938296;28;20482;-82
2022/03/02 11:02:42;;;;;;;36.45;24.17;;;6.70;99.90;;;;;;4955052;28;20260;-82
2022/03/02 11:05:11;;;;;;;38.17;23.45;;;6.80;99.90;;;;;;4954732;28;20109;-82
2022/03/02 11:07:37;;;;;;;37.70;23.33;;;7.40;99.90;;;;;;4954297;28;20070;-82
2022/03/02 11:10:05;;;;;;;35.83;23.35;;;6.80;99.90;;;;;;4954665;28;20050;-81
2022/03/02 11:12:32;;;;;;;34.92;23.50;;;6.90;99.90;;;;;;4938051;28;20078;-81
2022/03/02 11:15:02;;;;;;;34.40;22.55;;;7.00;99.90;;;;;;4954115;28;20053;-82
2022/03/02 11:17:28;;;;;;;37.45;21.25;;;7.70;99.90;;;;;;4938795;28;20158;-82
2022/03/02 11:19:57;;;;;;;36.05;22.10;;;7.10;99.90;;;;;;4960326;28;20035;-81
2022/03/02 11:22:25;;;;;;;38.33;23.80;;;7.10;99.90;;;;;;4934896;29;20571;-82
2022/03/02 11:24:55;;;;;;;36.25;24.45;;;7.20;99.90;;;;;;4919148;29;20414;-82
2022/03/02 11:27:28;;;;;;;36.25;23.65;;;7.20;99.90;;;;;;4918457;29;20085;-82
2022/03/02 11:30:12;;;;;;;35.90;23.08;;;7.30;99.90;;;;;;4935067;29;20063;-82
2022/03/02 11:32:40;;;;;;;41.25;24.58;;;7.30;99.90;;;;;;4919232;29;20495;-83
2022/03/02 11:35:09;;;;;;;33.25;23.10;;;7.40;99.90;;;;;;4934110;29;20039;-85
2022/03/02 11:37:36;;;;;;;31.38;20.92;;;7.40;99.90;;;;;;4935014;29;20373;-82
2022/03/02 11:40:05;;;;;;;30.80;19.55;;;7.50;99.90;;;;;;4919611;29;20130;-82
2022/03/02 11:42:33;;;;;;;33.10;20.70;;;7.50;99.90;;;;;;4917694;29;20050;-82
2022/03/02 11:45:00;;;;;;;31.20;20.95;;;7.50;99.90;;;;;;4919198;29;20039;-82
2022/03/02 11:47:36;;;;;;;34.85;23.05;;;7.60;99.90;;;;;;4919093;29;20054;-81
2022/03/02 11:50:04;;;;;;;32.65;21.90;;;7.50;99.90;;;;;;4918298;29;20904;-82
2022/03/02 11:52:33;;;;;;;34.25;22.02;;;7.50;99.90;;;;;;4934276;29;20043;-82
2022/03/02 11:55:00;;;;;;;34.13;22.38;;;7.60;99.90;;;;;;4934822;29;20059;-82
2022/03/02 11:57:28;;;;;;;36.75;23.60;;;7.60;99.90;;;;;;4933273;29;20487;-82
2022/03/02 12:00:18;;;;;;;32.83;21.00;;;7.60;99.90;;;;;;4919224;29;20155;-82
2022/03/02 12:02:47;;;;;;;31.90;21.00;;;7.60;99.90;;;;;;4917746;29;20051;-81
2022/03/02 12:05:14;;;;;;;34.05;21.80;;;7.70;99.90;;;;;;4918668;29;20183;-82
2022/03/02 12:07:46;;;;;;;35.72;22.77;;;7.70;99.90;;;;;;4918987;29;20051;-81
2022/03/02 12:10:22;;;;;;;30.17;20.57;;;7.70;99.90;;;;;;4949721;29;20141;-82
2022/03/02 12:12:49;;;;;;;32.40;21.70;;;7.80;99.90;;;;;;4917750;29;20054;-82
2022/03/02 12:15:16;;;;;;;31.45;20.00;;;7.80;99.90;;;;;;4934788;29;20066;-82
2022/03/02 12:17:43;;;;;;;32.42;21.42;;;7.80;99.90;;;;;;4918046;29;20180;-82
2022/03/02 12:20:14;;;;;;;31.05;20.52;;;7.90;99.90;;;;;;4918895;29;20442;-82
2022/03/02 12:22:45;;;;;;;27.35;19.10;;;7.90;99.90;;;;;;4928799;28;20426;-82
2022/03/02 12:25:14;;;;;;;28.65;19.75;;;7.90;99.90;;;;;;4952888;28;20201;-82
2022/03/02 12:27:42;;;;;;;30.67;21.02;;;8.00;99.90;;;;;;4968285;28;20104;-82
2022/03/02 12:30:10;;;;;;;34.95;20.88;;;8.90;99.90;;;;;;4953661;28;20046;-82
2022/03/02 12:32:38;;;;;;;30.55;21.27;;;8.00;99.90;;;;;;4952555;28;20140;-82
2022/03/02 12:35:08;;;;;;;33.95;21.95;;;8.10;99.90;;;;;;4953313;28;20125;-82
2022/03/02 12:37:35;;;;;;;34.10;22.30;;;8.10;99.90;;;;;;4952813;28;20042;-82
2022/03/02 12:40:05;;;;;;;30.90;21.35;;;8.20;99.90;;;;;;4970211;28;20094;-82